sensor_id;sensor_type;location;lat;lon;timestamp;P1;durP1;ratioP1;P2;durP2;ratioP2
6121;SDS011;3091;51.506;7.672;2024-02-21T00:01:06;23.37;;;22.20;;
6121;SDS011;3091;51.506;7.672;2024-02-21T00:03:33;22.83;;;21.63;;
6121;SDS011;3091;51.506;7.672;2024-02-21T00:05:59;21.20;;;20.30;;
6121;SDS011;3091;51.506;7.672;2024-02-21T00:08:25;23.13;;;22.03;;
6121;SDS011;3091;51.506;7.672;2024-02-21T00:10:51;25.80;;;24.20;;
6121;SDS011;3091;51.506;7.672;2024-02-21T00:13:17;24.70;;;22.77;;
6121;SDS011;3091;51.506;7.672;2024-02-21T00:15:43;30.07;;;21.83;;
6121;SDS011;3091;51.506;7.672;2024-02-21T00:18:09;25.07;;;23.47;;
6121;SDS011;3091;51.506;7.672;2024-02-21T00:20:36;23.90;;;22.70;;
6121;SDS011;3091;51.506;7.672;2024-02-21T00:23:02;23.90;;;22.63;;
6121;SDS011;3091;51.506;7.672;2024-02-21T00:25:28;21.90;;;21.00;;
6121;SDS011;3091;51.506;7.672;2024-02-21T00:27:54;24.47;;;23.30;;
6121;SDS011;3091;51.506;7.672;2024-02-21T00:30:20;23.43;;;22.40;;
6121;SDS011;3091;51.506;7.672;2024-02-21T00:32:46;21.43;;;20.53;;
6121;SDS011;3091;51.506;7.672;2024-02-21T00:35:13;21.20;;;20.30;;
6121;SDS011;3091;51.506;7.672;2024-02-21T00:37:39;22.57;;;21.53;;
6121;SDS011;3091;51.506;7.672;2024-02-21T00:40:05;24.13;;;22.87;;
6121;SDS011;3091;51.506;7.672;2024-02-21T00:42:32;22.27;;;21.03;;
6121;SDS011;3091;51.506;7.672;2024-02-21T00:44:58;25.67;;;23.37;;
6121;SDS011;3091;51.506;7.672;2024-02-21T00:47:24;22.90;;;21.80;;
6121;SDS011;3091;51.506;7.672;2024-02-21T00:49:50;25.67;;;23.70;;
6121;SDS011;3091;51.506;7.672;2024-02-21T00:52:16;24.80;;;22.93;;
6121;SDS011;3091;51.506;7.672;2024-02-21T00:54:43;23.33;;;22.13;;
6121;SDS011;3091;51.506;7.672;2024-02-21T00:57:09;22.30;;;21.30;;
6121;SDS011;3091;51.506;7.672;2024-02-21T00:59:35;24.50;;;22.70;;
6121;SDS011;3091;51.506;7.672;2024-02-21T01:02:01;25.37;;;23.93;;
6121;SDS011;3091;51.506;7.672;2024-02-21T01:04:27;22.37;;;20.87;;
6121;SDS011;3091;51.506;7.672;2024-02-21T01:06:53;23.47;;;22.17;;
6121;SDS011;3091;51.506;7.672;2024-02-21T01:09:19;22.90;;;21.50;;
6121;SDS011;3091;51.506;7.672;2024-02-21T01:11:45;23.33;;;21.93;;
6121;SDS011;3091;51.506;7.672;2024-02-21T01:14:11;25.53;;;23.47;;
6121;SDS011;3091;51.506;7.672;2024-02-21T01:16:40;22.37;;;20.77;;
6121;SDS011;3091;51.506;7.672;2024-02-21T01:19:06;23.33;;;21.73;;
6121;SDS011;3091;51.506;7.672;2024-02-21T01:21:32;25.43;;;22.80;;
6121;SDS011;3091;51.506;7.672;2024-02-21T01:23:58;24.07;;;22.20;;
6121;SDS011;3091;51.506;7.672;2024-02-21T01:26:24;22.53;;;21.23;;
6121;SDS011;3091;51.506;7.672;2024-02-21T01:28:50;22.90;;;21.43;;
6121;SDS011;3091;51.506;7.672;2024-02-21T01:31:17;24.60;;;22.30;;
6121;SDS011;3091;51.506;7.672;2024-02-21T01:33:43;25.17;;;22.97;;
6121;SDS011;3091;51.506;7.672;2024-02-21T01:36:09;23.67;;;22.10;;
6121;SDS011;3091;51.506;7.672;2024-02-21T01:38:35;25.17;;;23.57;;
6121;SDS011;3091;51.506;7.672;2024-02-21T01:41:01;24.07;;;22.63;;
6121;SDS011;3091;51.506;7.672;2024-02-21T01:43:27;23.07;;;21.77;;
6121;SDS011;3091;51.506;7.672;2024-02-21T01:45:54;23.43;;;22.13;;
6121;SDS011;3091;51.506;7.672;2024-02-21T01:48:22;26.10;;;24.77;;
6121;SDS011;3091;51.506;7.672;2024-02-21T01:50:51;22.80;;;21.60;;
6121;SDS011;3091;51.506;7.672;2024-02-21T01:53:22;23.07;;;21.60;;
6121;SDS011;3091;51.506;7.672;2024-02-21T01:55:56;21.50;;;20.37;;
6121;SDS011;3091;51.506;7.672;2024-02-21T01:58:22;25.37;;;23.67;;
6121;SDS011;3091;51.506;7.672;2024-02-21T02:00:49;22.93;;;21.63;;
6121;SDS011;3091;51.506;7.672;2024-02-21T02:03:16;24.27;;;23.00;;
6121;SDS011;3091;51.506;7.672;2024-02-21T02:05:45;25.77;;;23.90;;
6121;SDS011;3091;51.506;7.672;2024-02-21T02:08:15;22.77;;;21.67;;
6121;SDS011;3091;51.506;7.672;2024-02-21T02:10:44;22.67;;;21.67;;
6121;SDS011;3091;51.506;7.672;2024-02-21T02:13:10;23.10;;;22.10;;
6121;SDS011;3091;51.506;7.672;2024-02-21T02:15:49;25.40;;;24.03;;
6121;SDS011;3091;51.506;7.672;2024-02-21T02:18:16;22.87;;;21.87;;
6121;SDS011;3091;51.506;7.672;2024-02-21T02:20:43;23.70;;;22.50;;
6121;SDS011;3091;51.506;7.672;2024-02-21T02:25:45;24.60;;;23.50;;
6121;SDS011;3091;51.506;7.672;2024-02-21T02:28:14;23.60;;;22.50;;
6121;SDS011;3091;51.506;7.672;2024-02-21T02:30:41;23.30;;;22.30;;
6121;SDS011;3091;51.506;7.672;2024-02-21T02:33:07;22.43;;;21.33;;
6121;SDS011;3091;51.506;7.672;2024-02-21T02:35:33;23.07;;;22.00;;
6121;SDS011;3091;51.506;7.672;2024-02-21T02:38:01;25.27;;;24.07;;
6121;SDS011;3091;51.506;7.672;2024-02-21T02:40:29;23.27;;;22.17;;
6121;SDS011;3091;51.506;7.672;2024-02-21T02:42:58;21.93;;;21.03;;
6121;SDS011;3091;51.506;7.672;2024-02-21T02:45:24;25.37;;;24.03;;
6121;SDS011;3091;51.506;7.672;2024-02-21T02:47:54;22.73;;;21.27;;
6121;SDS011;3091;51.506;7.672;2024-02-21T02:50:24;20.63;;;19.63;;
6121;SDS011;3091;51.506;7.672;2024-02-21T02:52:50;22.30;;;21.00;;
6121;SDS011;3091;51.506;7.672;2024-02-21T02:55:16;23.37;;;22.07;;
6121;SDS011;3091;51.506;7.672;2024-02-21T02:57:42;24.50;;;23.20;;
6121;SDS011;3091;51.506;7.672;2024-02-21T03:00:10;22.90;;;21.50;;
6121;SDS011;3091;51.506;7.672;2024-02-21T03:02:37;25.13;;;23.17;;
6121;SDS011;3091;51.506;7.672;2024-02-21T03:05:10;21.17;;;20.17;;
6121;SDS011;3091;51.506;7.672;2024-02-21T03:07:37;23.50;;;22.30;;
6121;SDS011;3091;51.506;7.672;2024-02-21T03:10:03;23.90;;;22.50;;
6121;SDS011;3091;51.506;7.672;2024-02-21T03:12:29;22.90;;;21.70;;
6121;SDS011;3091;51.506;7.672;2024-02-21T03:14:55;23.73;;;22.07;;
6121;SDS011;3091;51.506;7.672;2024-02-21T03:17:21;22.27;;;21.17;;
6121;SDS011;3091;51.506;7.672;2024-02-21T03:19:48;23.27;;;22.00;;
6121;SDS011;3091;51.506;7.672;2024-02-21T03:22:15;22.37;;;21.27;;
6121;SDS011;3091;51.506;7.672;2024-02-21T03:24:41;24.60;;;23.30;;
6121;SDS011;3091;51.506;7.672;2024-02-21T03:27:07;24.80;;;21.93;;
6121;SDS011;3091;51.506;7.672;2024-02-21T03:29:33;23.20;;;22.10;;
6121;SDS011;3091;51.506;7.672;2024-02-21T03:31:59;22.83;;;21.63;;
6121;SDS011;3091;51.506;7.672;2024-02-21T03:34:28;22.80;;;21.70;;
6121;SDS011;3091;51.506;7.672;2024-02-21T03:36:54;24.20;;;23.00;;
6121;SDS011;3091;51.506;7.672;2024-02-21T03:39:20;23.43;;;22.33;;
6121;SDS011;3091;51.506;7.672;2024-02-21T03:41:48;22.77;;;21.60;;
6121;SDS011;3091;51.506;7.672;2024-02-21T03:44:14;24.93;;;23.63;;
6121;SDS011;3091;51.506;7.672;2024-02-21T03:46:41;23.20;;;22.03;;
6121;SDS011;3091;51.506;7.672;2024-02-21T03:49:07;23.20;;;22.10;;
6121;SDS011;3091;51.506;7.672;2024-02-21T03:51:33;25.63;;;24.43;;
6121;SDS011;3091;51.506;7.672;2024-02-21T03:53:59;22.93;;;21.73;;
6121;SDS011;3091;51.506;7.672;2024-02-21T03:56:25;24.13;;;22.93;;
6121;SDS011;3091;51.506;7.672;2024-02-21T03:58:51;24.73;;;23.23;;
6121;SDS011;3091;51.506;7.672;2024-02-21T04:01:17;21.47;;;20.57;;
6121;SDS011;3091;51.506;7.672;2024-02-21T04:03:43;23.10;;;22.10;;
6121;SDS011;3091;51.506;7.672;2024-02-21T04:06:10;22.80;;;21.80;;
6121;SDS011;3091;51.506;7.672;2024-02-21T04:08:36;22.40;;;21.27;;
6121;SDS011;3091;51.506;7.672;2024-02-21T04:11:02;22.43;;;21.40;;
6121;SDS011;3091;51.506;7.672;2024-02-21T04:13:30;20.13;;;19.23;;
6121;SDS011;3091;51.506;7.672;2024-02-21T04:15:56;24.20;;;22.87;;
6121;SDS011;3091;51.506;7.672;2024-02-21T04:18:23;23.23;;;21.73;;
6121;SDS011;3091;51.506;7.672;2024-02-21T04:20:50;21.10;;;20.00;;
6121;SDS011;3091;51.506;7.672;2024-02-21T04:23:16;20.87;;;19.87;;
6121;SDS011;3091;51.506;7.672;2024-02-21T04:25:42;22.30;;;20.90;;
6121;SDS011;3091;51.506;7.672;2024-02-21T04:28:08;20.87;;;19.83;;
6121;SDS011;3091;51.506;7.672;2024-02-21T04:30:36;22.60;;;21.30;;
6121;SDS011;3091;51.506;7.672;2024-02-21T04:33:02;20.13;;;19.13;;
6121;SDS011;3091;51.506;7.672;2024-02-21T04:35:29;20.83;;;19.70;;
6121;SDS011;3091;51.506;7.672;2024-02-21T04:37:55;20.37;;;19.37;;
6121;SDS011;3091;51.506;7.672;2024-02-21T04:40:21;24.03;;;22.20;;
6121;SDS011;3091;51.506;7.672;2024-02-21T04:42:47;22.77;;;21.37;;
6121;SDS011;3091;51.506;7.672;2024-02-21T04:45:13;20.73;;;19.83;;
6121;SDS011;3091;51.506;7.672;2024-02-21T04:47:39;19.70;;;18.60;;
6121;SDS011;3091;51.506;7.672;2024-02-21T04:50:05;20.60;;;19.63;;
6121;SDS011;3091;51.506;7.672;2024-02-21T04:52:31;21.30;;;20.40;;
6121;SDS011;3091;51.506;7.672;2024-02-21T04:54:57;21.43;;;20.40;;
6121;SDS011;3091;51.506;7.672;2024-02-21T04:57:23;21.13;;;20.20;;
6121;SDS011;3091;51.506;7.672;2024-02-21T04:59:50;20.00;;;19.10;;
6121;SDS011;3091;51.506;7.672;2024-02-21T05:02:18;20.90;;;19.90;;
6121;SDS011;3091;51.506;7.672;2024-02-21T05:04:47;21.20;;;20.17;;
6121;SDS011;3091;51.506;7.672;2024-02-21T05:07:13;21.03;;;20.03;;
6121;SDS011;3091;51.506;7.672;2024-02-21T05:09:39;21.00;;;19.90;;
6121;SDS011;3091;51.506;7.672;2024-02-21T05:12:05;21.40;;;20.40;;
6121;SDS011;3091;51.506;7.672;2024-02-21T05:14:32;22.73;;;21.73;;
6121;SDS011;3091;51.506;7.672;2024-02-21T05:16:58;22.57;;;21.37;;
6121;SDS011;3091;51.506;7.672;2024-02-21T05:19:24;20.40;;;19.50;;
6121;SDS011;3091;51.506;7.672;2024-02-21T05:21:50;20.43;;;19.53;;
6121;SDS011;3091;51.506;7.672;2024-02-21T05:24:16;19.47;;;18.67;;
6121;SDS011;3091;51.506;7.672;2024-02-21T05:26:42;21.73;;;20.33;;
6121;SDS011;3091;51.506;7.672;2024-02-21T05:29:08;20.70;;;19.70;;
6121;SDS011;3091;51.506;7.672;2024-02-21T05:34:16;21.53;;;20.37;;
6121;SDS011;3091;51.506;7.672;2024-02-21T05:36:42;19.47;;;18.47;;
6121;SDS011;3091;51.506;7.672;2024-02-21T05:39:08;20.07;;;19.17;;
6121;SDS011;3091;51.506;7.672;2024-02-21T05:41:34;21.90;;;20.90;;
6121;SDS011;3091;51.506;7.672;2024-02-21T05:44:00;21.23;;;19.70;;
6121;SDS011;3091;51.506;7.672;2024-02-21T05:46:29;21.07;;;19.67;;
6121;SDS011;3091;51.506;7.672;2024-02-21T05:48:55;19.87;;;18.93;;
6121;SDS011;3091;51.506;7.672;2024-02-21T05:51:24;21.07;;;19.87;;
6121;SDS011;3091;51.506;7.672;2024-02-21T05:53:50;22.47;;;21.03;;
6121;SDS011;3091;51.506;7.672;2024-02-21T05:56:16;19.93;;;19.03;;
6121;SDS011;3091;51.506;7.672;2024-02-21T05:58:43;19.27;;;18.47;;
6121;SDS011;3091;51.506;7.672;2024-02-21T06:01:09;19.73;;;18.83;;
6121;SDS011;3091;51.506;7.672;2024-02-21T06:03:35;20.70;;;19.60;;
6121;SDS011;3091;51.506;7.672;2024-02-21T06:06:02;20.17;;;19.27;;
6121;SDS011;3091;51.506;7.672;2024-02-21T06:08:28;21.13;;;20.23;;
6121;SDS011;3091;51.506;7.672;2024-02-21T06:10:54;20.93;;;20.03;;
6121;SDS011;3091;51.506;7.672;2024-02-21T06:13:21;19.97;;;19.10;;
6121;SDS011;3091;51.506;7.672;2024-02-21T06:15:47;19.63;;;18.83;;
6121;SDS011;3091;51.506;7.672;2024-02-21T06:18:15;24.10;;;22.67;;
6121;SDS011;3091;51.506;7.672;2024-02-21T06:20:41;20.37;;;19.47;;
6121;SDS011;3091;51.506;7.672;2024-02-21T06:23:08;22.03;;;20.63;;
6121;SDS011;3091;51.506;7.672;2024-02-21T06:25:34;21.90;;;20.67;;
6121;SDS011;3091;51.506;7.672;2024-02-21T06:28:00;21.27;;;20.23;;
6121;SDS011;3091;51.506;7.672;2024-02-21T06:30:27;22.17;;;20.83;;
6121;SDS011;3091;51.506;7.672;2024-02-21T06:32:53;21.40;;;20.40;;
6121;SDS011;3091;51.506;7.672;2024-02-21T06:35:21;20.47;;;19.47;;
6121;SDS011;3091;51.506;7.672;2024-02-21T06:37:52;22.03;;;20.77;;
6121;SDS011;3091;51.506;7.672;2024-02-21T06:40:20;21.40;;;20.17;;
6121;SDS011;3091;51.506;7.672;2024-02-21T06:42:46;19.33;;;18.53;;
6121;SDS011;3091;51.506;7.672;2024-02-21T06:45:12;22.70;;;21.10;;
6121;SDS011;3091;51.506;7.672;2024-02-21T06:47:41;23.50;;;22.30;;
6121;SDS011;3091;51.506;7.672;2024-02-21T06:50:07;22.10;;;21.10;;
6121;SDS011;3091;51.506;7.672;2024-02-21T06:52:34;22.70;;;21.70;;
6121;SDS011;3091;51.506;7.672;2024-02-21T06:55:00;22.97;;;21.77;;
6121;SDS011;3091;51.506;7.672;2024-02-21T06:57:26;22.60;;;21.50;;
6121;SDS011;3091;51.506;7.672;2024-02-21T06:59:52;23.63;;;22.40;;
6121;SDS011;3091;51.506;7.672;2024-02-21T07:02:18;25.03;;;23.73;;
6121;SDS011;3091;51.506;7.672;2024-02-21T07:04:44;25.07;;;23.97;;
6121;SDS011;3091;51.506;7.672;2024-02-21T07:07:10;21.00;;;20.20;;
6121;SDS011;3091;51.506;7.672;2024-02-21T07:09:37;22.87;;;21.97;;
6121;SDS011;3091;51.506;7.672;2024-02-21T07:12:03;23.50;;;22.27;;
6121;SDS011;3091;51.506;7.672;2024-02-21T07:14:30;21.93;;;21.03;;
6121;SDS011;3091;51.506;7.672;2024-02-21T07:16:56;21.60;;;20.50;;
6121;SDS011;3091;51.506;7.672;2024-02-21T07:19:22;21.30;;;20.50;;
6121;SDS011;3091;51.506;7.672;2024-02-21T07:21:48;22.27;;;21.37;;
6121;SDS011;3091;51.506;7.672;2024-02-21T07:24:14;21.60;;;20.70;;
6121;SDS011;3091;51.506;7.672;2024-02-21T07:26:43;21.57;;;20.43;;
6121;SDS011;3091;51.506;7.672;2024-02-21T07:29:10;20.93;;;20.13;;
6121;SDS011;3091;51.506;7.672;2024-02-21T07:31:40;20.97;;;20.07;;
6121;SDS011;3091;51.506;7.672;2024-02-21T07:34:09;20.00;;;19.30;;
6121;SDS011;3091;51.506;7.672;2024-02-21T07:36:35;19.47;;;18.73;;
6121;SDS011;3091;51.506;7.672;2024-02-21T07:39:03;19.90;;;19.00;;
6121;SDS011;3091;51.506;7.672;2024-02-21T07:41:32;21.30;;;20.30;;
6121;SDS011;3091;51.506;7.672;2024-02-21T07:43:59;19.50;;;18.80;;
6121;SDS011;3091;51.506;7.672;2024-02-21T07:46:25;21.77;;;20.63;;
6121;SDS011;3091;51.506;7.672;2024-02-21T07:48:52;20.70;;;19.90;;
6121;SDS011;3091;51.506;7.672;2024-02-21T07:51:18;20.60;;;19.80;;
6121;SDS011;3091;51.506;7.672;2024-02-21T07:53:44;20.03;;;19.23;;
6121;SDS011;3091;51.506;7.672;2024-02-21T07:56:14;19.07;;;18.33;;
6121;SDS011;3091;51.506;7.672;2024-02-21T07:58:43;20.67;;;19.87;;
6121;SDS011;3091;51.506;7.672;2024-02-21T08:01:10;20.00;;;19.20;;
6121;SDS011;3091;51.506;7.672;2024-02-21T08:03:36;19.97;;;19.13;;
6121;SDS011;3091;51.506;7.672;2024-02-21T08:06:02;19.43;;;18.63;;
6121;SDS011;3091;51.506;7.672;2024-02-21T08:08:29;19.60;;;18.77;;
6121;SDS011;3091;51.506;7.672;2024-02-21T08:10:55;20.43;;;19.63;;
6121;SDS011;3091;51.506;7.672;2024-02-21T08:13:21;18.90;;;18.23;;
6121;SDS011;3091;51.506;7.672;2024-02-21T08:15:47;18.13;;;17.43;;
6121;SDS011;3091;51.506;7.672;2024-02-21T08:18:13;19.27;;;18.57;;
6121;SDS011;3091;51.506;7.672;2024-02-21T08:20:39;18.97;;;18.27;;
6121;SDS011;3091;51.506;7.672;2024-02-21T08:23:05;19.10;;;18.40;;
6121;SDS011;3091;51.506;7.672;2024-02-21T08:25:31;19.53;;;18.83;;
6121;SDS011;3091;51.506;7.672;2024-02-21T08:27:58;18.70;;;17.90;;
6121;SDS011;3091;51.506;7.672;2024-02-21T08:30:24;18.27;;;17.67;;
6121;SDS011;3091;51.506;7.672;2024-02-21T08:32:51;21.27;;;20.00;;
6121;SDS011;3091;51.506;7.672;2024-02-21T08:35:18;19.30;;;18.20;;
6121;SDS011;3091;51.506;7.672;2024-02-21T08:37:47;19.23;;;18.53;;
6121;SDS011;3091;51.506;7.672;2024-02-21T08:40:13;19.30;;;18.60;;
6121;SDS011;3091;51.506;7.672;2024-02-21T08:42:42;19.50;;;18.60;;
6121;SDS011;3091;51.506;7.672;2024-02-21T08:45:09;20.87;;;19.80;;
6121;SDS011;3091;51.506;7.672;2024-02-21T08:47:35;22.70;;;21.60;;
6121;SDS011;3091;51.506;7.672;2024-02-21T08:50:03;20.60;;;19.90;;
6121;SDS011;3091;51.506;7.672;2024-02-21T08:52:30;20.90;;;19.90;;
6121;SDS011;3091;51.506;7.672;2024-02-21T08:54:57;18.60;;;18.00;;
6121;SDS011;3091;51.506;7.672;2024-02-21T08:57:23;22.03;;;20.83;;
6121;SDS011;3091;51.506;7.672;2024-02-21T08:59:49;20.97;;;20.00;;
6121;SDS011;3091;51.506;7.672;2024-02-21T09:02:15;19.30;;;18.60;;
6121;SDS011;3091;51.506;7.672;2024-02-21T09:04:41;20.00;;;19.30;;
6121;SDS011;3091;51.506;7.672;2024-02-21T09:07:09;18.87;;;18.17;;
6121;SDS011;3091;51.506;7.672;2024-02-21T09:09:35;20.43;;;19.53;;
6121;SDS011;3091;51.506;7.672;2024-02-21T09:12:03;21.70;;;20.70;;
6121;SDS011;3091;51.506;7.672;2024-02-21T09:14:33;20.83;;;20.03;;
6121;SDS011;3091;51.506;7.672;2024-02-21T09:17:00;22.20;;;20.90;;
6121;SDS011;3091;51.506;7.672;2024-02-21T09:19:26;22.30;;;21.23;;
6121;SDS011;3091;51.506;7.672;2024-02-21T09:21:52;23.73;;;22.50;;
6121;SDS011;3091;51.506;7.672;2024-02-21T09:24:18;22.83;;;21.63;;
6121;SDS011;3091;51.506;7.672;2024-02-21T09:26:44;21.93;;;21.03;;
6121;SDS011;3091;51.506;7.672;2024-02-21T09:29:11;22.00;;;21.10;;
6121;SDS011;3091;51.506;7.672;2024-02-21T09:31:37;22.97;;;22.07;;
6121;SDS011;3091;51.506;7.672;2024-02-21T09:34:03;21.67;;;20.77;;
6121;SDS011;3091;51.506;7.672;2024-02-21T09:36:30;24.77;;;23.50;;
6121;SDS011;3091;51.506;7.672;2024-02-21T09:38:58;22.07;;;20.83;;
6121;SDS011;3091;51.506;7.672;2024-02-21T09:41:30;21.73;;;20.83;;
6121;SDS011;3091;51.506;7.672;2024-02-21T09:43:58;21.10;;;20.30;;
6121;SDS011;3091;51.506;7.672;2024-02-21T09:51:42;22.40;;;21.50;;
6121;SDS011;3091;51.506;7.672;2024-02-21T09:54:09;22.43;;;21.50;;
6121;SDS011;3091;51.506;7.672;2024-02-21T09:56:35;22.63;;;20.90;;
6121;SDS011;3091;51.506;7.672;2024-02-21T09:59:02;22.80;;;21.67;;
6121;SDS011;3091;51.506;7.672;2024-02-21T10:01:30;22.40;;;21.30;;
6121;SDS011;3091;51.506;7.672;2024-02-21T10:03:57;22.67;;;21.57;;
6121;SDS011;3091;51.506;7.672;2024-02-21T10:06:25;22.63;;;21.60;;
6121;SDS011;3091;51.506;7.672;2024-02-21T10:08:54;22.20;;;21.20;;
6121;SDS011;3091;51.506;7.672;2024-02-21T10:11:24;20.50;;;19.70;;
6121;SDS011;3091;51.506;7.672;2024-02-21T10:13:50;20.83;;;20.03;;
6121;SDS011;3091;51.506;7.672;2024-02-21T10:16:17;21.50;;;20.60;;
6121;SDS011;3091;51.506;7.672;2024-02-21T10:18:43;22.00;;;20.83;;
6121;SDS011;3091;51.506;7.672;2024-02-21T10:21:09;22.33;;;21.30;;
6121;SDS011;3091;51.506;7.672;2024-02-21T10:23:47;22.80;;;21.80;;
6121;SDS011;3091;51.506;7.672;2024-02-21T10:26:14;21.80;;;20.77;;
6121;SDS011;3091;51.506;7.672;2024-02-21T10:28:41;21.93;;;21.03;;
6121;SDS011;3091;51.506;7.672;2024-02-21T10:31:10;22.10;;;21.20;;
6121;SDS011;3091;51.506;7.672;2024-02-21T10:33:37;21.90;;;20.97;;
6121;SDS011;3091;51.506;7.672;2024-02-21T10:36:07;22.33;;;21.43;;
6121;SDS011;3091;51.506;7.672;2024-02-21T10:38:34;21.53;;;20.63;;
6121;SDS011;3091;51.506;7.672;2024-02-21T10:41:00;22.67;;;21.67;;
6121;SDS011;3091;51.506;7.672;2024-02-21T10:43:30;21.90;;;20.90;;
6121;SDS011;3091;51.506;7.672;2024-02-21T10:45:58;22.70;;;21.60;;
6121;SDS011;3091;51.506;7.672;2024-02-21T10:48:29;20.50;;;19.73;;
6121;SDS011;3091;51.506;7.672;2024-02-21T10:59:06;21.77;;;20.40;;
6121;SDS011;3091;51.506;7.672;2024-02-21T11:01:32;21.50;;;20.20;;
6121;SDS011;3091;51.506;7.672;2024-02-21T11:04:04;18.63;;;17.93;;
6121;SDS011;3091;51.506;7.672;2024-02-21T11:06:31;19.87;;;19.10;;
6121;SDS011;3091;51.506;7.672;2024-02-21T11:11:28;18.57;;;17.87;;
6121;SDS011;3091;51.506;7.672;2024-02-21T11:14:04;19.93;;;19.23;;
6121;SDS011;3091;51.506;7.672;2024-02-21T11:16:34;19.10;;;18.33;;
6121;SDS011;3091;51.506;7.672;2024-02-21T11:19:04;17.60;;;17.00;;
6121;SDS011;3091;51.506;7.672;2024-02-21T11:21:36;18.90;;;18.10;;
6121;SDS011;3091;51.506;7.672;2024-02-21T11:24:03;17.47;;;16.87;;
6121;SDS011;3091;51.506;7.672;2024-02-21T11:26:29;18.80;;;18.00;;
6121;SDS011;3091;51.506;7.672;2024-02-21T11:29:00;16.70;;;16.10;;
6121;SDS011;3091;51.506;7.672;2024-02-21T11:31:27;17.93;;;17.13;;
6121;SDS011;3091;51.506;7.672;2024-02-21T11:34:04;16.70;;;16.20;;
6121;SDS011;3091;51.506;7.672;2024-02-21T11:36:30;16.67;;;16.13;;
6121;SDS011;3091;51.506;7.672;2024-02-21T11:39:02;18.40;;;17.40;;
6121;SDS011;3091;51.506;7.672;2024-02-21T11:41:29;17.30;;;16.70;;
6121;SDS011;3091;51.506;7.672;2024-02-21T11:43:55;17.93;;;17.23;;
6121;SDS011;3091;51.506;7.672;2024-02-21T11:46:21;17.80;;;17.00;;
6121;SDS011;3091;51.506;7.672;2024-02-21T11:48:48;18.00;;;17.30;;
6121;SDS011;3091;51.506;7.672;2024-02-21T11:51:24;15.70;;;15.20;;
6121;SDS011;3091;51.506;7.672;2024-02-21T11:53:51;17.60;;;16.67;;
6121;SDS011;3091;51.506;7.672;2024-02-21T11:56:17;15.70;;;15.10;;
6121;SDS011;3091;51.506;7.672;2024-02-21T11:58:44;16.70;;;16.10;;
6121;SDS011;3091;51.506;7.672;2024-02-21T12:01:10;17.07;;;16.37;;
6121;SDS011;3091;51.506;7.672;2024-02-21T12:03:36;18.13;;;17.33;;
6121;SDS011;3091;51.506;7.672;2024-02-21T12:06:02;16.47;;;15.87;;
6121;SDS011;3091;51.506;7.672;2024-02-21T12:08:44;16.80;;;16.20;;
6121;SDS011;3091;51.506;7.672;2024-02-21T12:11:18;16.80;;;16.20;;
6121;SDS011;3091;51.506;7.672;2024-02-21T12:13:45;18.67;;;17.87;;
6121;SDS011;3091;51.506;7.672;2024-02-21T12:16:12;20.27;;;18.70;;
6121;SDS011;3091;51.506;7.672;2024-02-21T12:18:41;18.60;;;17.30;;
6121;SDS011;3091;51.506;7.672;2024-02-21T12:21:07;19.10;;;18.00;;
6121;SDS011;3091;51.506;7.672;2024-02-21T12:23:35;18.77;;;17.83;;
6121;SDS011;3091;51.506;7.672;2024-02-21T12:26:03;17.37;;;16.77;;
6121;SDS011;3091;51.506;7.672;2024-02-21T12:28:32;17.73;;;17.03;;
6121;SDS011;3091;51.506;7.672;2024-02-21T12:30:58;17.27;;;16.67;;
6121;SDS011;3091;51.506;7.672;2024-02-21T12:33:24;16.10;;;15.50;;
6121;SDS011;3091;51.506;7.672;2024-02-21T12:35:50;16.53;;;16.03;;
6121;SDS011;3091;51.506;7.672;2024-02-21T12:38:16;17.93;;;16.97;;
6121;SDS011;3091;51.506;7.672;2024-02-21T12:40:44;17.20;;;16.60;;
6121;SDS011;3091;51.506;7.672;2024-02-21T12:43:10;17.30;;;16.63;;
6121;SDS011;3091;51.506;7.672;2024-02-21T12:45:36;19.47;;;18.30;;
6121;SDS011;3091;51.506;7.672;2024-02-21T12:48:02;18.87;;;18.17;;
6121;SDS011;3091;51.506;7.672;2024-02-21T12:50:29;18.00;;;17.40;;
6121;SDS011;3091;51.506;7.672;2024-02-21T12:52:56;19.70;;;18.80;;
6121;SDS011;3091;51.506;7.672;2024-02-21T12:55:23;19.23;;;18.50;;
6121;SDS011;3091;51.506;7.672;2024-02-21T12:57:50;19.50;;;18.73;;
6121;SDS011;3091;51.506;7.672;2024-02-21T13:00:16;17.97;;;17.23;;
6121;SDS011;3091;51.506;7.672;2024-02-21T13:02:42;19.50;;;18.80;;
6121;SDS011;3091;51.506;7.672;2024-02-21T13:05:08;19.13;;;18.43;;
6121;SDS011;3091;51.506;7.672;2024-02-21T13:07:34;19.13;;;18.33;;
6121;SDS011;3091;51.506;7.672;2024-02-21T13:10:00;17.73;;;17.03;;
6121;SDS011;3091;51.506;7.672;2024-02-21T13:12:26;19.03;;;17.97;;
6121;SDS011;3091;51.506;7.672;2024-02-21T13:14:53;16.30;;;15.80;;
6121;SDS011;3091;51.506;7.672;2024-02-21T13:17:19;18.13;;;17.43;;
6121;SDS011;3091;51.506;7.672;2024-02-21T13:19:47;16.80;;;16.30;;
6121;SDS011;3091;51.506;7.672;2024-02-21T13:22:13;28.57;;;17.20;;
6121;SDS011;3091;51.506;7.672;2024-02-21T13:24:39;17.83;;;17.23;;
6121;SDS011;3091;51.506;7.672;2024-02-21T13:27:05;18.90;;;18.10;;
6121;SDS011;3091;51.506;7.672;2024-02-21T13:29:31;18.20;;;17.60;;
6121;SDS011;3091;51.506;7.672;2024-02-21T13:32:00;17.53;;;16.83;;
6121;SDS011;3091;51.506;7.672;2024-02-21T13:34:26;15.87;;;15.37;;
6121;SDS011;3091;51.506;7.672;2024-02-21T13:36:52;16.40;;;15.90;;
6121;SDS011;3091;51.506;7.672;2024-02-21T13:39:18;16.70;;;16.20;;
6121;SDS011;3091;51.506;7.672;2024-02-21T13:41:44;16.70;;;16.17;;
6121;SDS011;3091;51.506;7.672;2024-02-21T13:44:11;17.40;;;16.80;;
6121;SDS011;3091;51.506;7.672;2024-02-21T13:46:38;18.60;;;17.90;;
6121;SDS011;3091;51.506;7.672;2024-02-21T13:49:04;17.00;;;16.40;;
6121;SDS011;3091;51.506;7.672;2024-02-21T13:51:34;17.77;;;17.13;;
6121;SDS011;3091;51.506;7.672;2024-02-21T13:54:03;17.40;;;16.80;;
6121;SDS011;3091;51.506;7.672;2024-02-21T13:56:30;16.00;;;15.50;;
6121;SDS011;3091;51.506;7.672;2024-02-21T13:58:57;18.40;;;17.40;;
6121;SDS011;3091;51.506;7.672;2024-02-21T14:01:25;17.43;;;16.73;;
6121;SDS011;3091;51.506;7.672;2024-02-21T14:03:52;16.70;;;16.20;;
6121;SDS011;3091;51.506;7.672;2024-02-21T14:06:19;16.47;;;15.97;;
6121;SDS011;3091;51.506;7.672;2024-02-21T14:08:45;17.73;;;17.10;;
6121;SDS011;3091;51.506;7.672;2024-02-21T14:11:11;18.73;;;17.70;;
6121;SDS011;3091;51.506;7.672;2024-02-21T14:13:37;17.57;;;16.97;;
6121;SDS011;3091;51.506;7.672;2024-02-21T14:16:08;18.07;;;17.37;;
6121;SDS011;3091;51.506;7.672;2024-02-21T14:18:36;16.70;;;16.10;;
6121;SDS011;3091;51.506;7.672;2024-02-21T14:21:03;16.00;;;15.40;;
6121;SDS011;3091;51.506;7.672;2024-02-21T14:23:29;17.60;;;16.90;;
6121;SDS011;3091;51.506;7.672;2024-02-21T14:25:55;16.20;;;15.70;;
6121;SDS011;3091;51.506;7.672;2024-02-21T14:28:21;17.87;;;17.17;;
6121;SDS011;3091;51.506;7.672;2024-02-21T14:30:47;18.20;;;17.53;;
6121;SDS011;3091;51.506;7.672;2024-02-21T14:33:18;15.53;;;15.03;;
6121;SDS011;3091;51.506;7.672;2024-02-21T14:35:44;16.37;;;15.87;;
6121;SDS011;3091;51.506;7.672;2024-02-21T14:38:10;16.87;;;16.27;;
6121;SDS011;3091;51.506;7.672;2024-02-21T14:40:36;16.87;;;16.17;;
6121;SDS011;3091;51.506;7.672;2024-02-21T14:43:02;16.53;;;15.93;;
6121;SDS011;3091;51.506;7.672;2024-02-21T14:45:29;17.83;;;17.23;;
6121;SDS011;3091;51.506;7.672;2024-02-21T14:47:55;16.60;;;16.00;;
6121;SDS011;3091;51.506;7.672;2024-02-21T14:50:21;17.70;;;16.90;;
6121;SDS011;3091;51.506;7.672;2024-02-21T14:52:48;17.57;;;16.80;;
6121;SDS011;3091;51.506;7.672;2024-02-21T14:55:15;16.20;;;15.70;;
6121;SDS011;3091;51.506;7.672;2024-02-21T14:57:41;17.70;;;17.00;;
6121;SDS011;3091;51.506;7.672;2024-02-21T15:00:10;19.20;;;18.10;;
6121;SDS011;3091;51.506;7.672;2024-02-21T15:02:37;18.13;;;17.47;;
6121;SDS011;3091;51.506;7.672;2024-02-21T15:05:03;16.30;;;15.80;;
6121;SDS011;3091;51.506;7.672;2024-02-21T15:07:30;15.90;;;15.40;;